Decoded Metar for KBRY ( in ) (IATA:) | Meteo·Mobile Aviation Weather
aviador You're here:

KBRY Decoded Metar

in
Report Time2020-02-25 21:35:00
UTC Time2020-02-25 21:52:12
Flight Rules mvfr MVFR
Wind230° at 03 kt
W.Decomp.*RWY 21: 2.8 kt HW 1.0 kt RCW
RWY 20: 2.6 kt HW 1.5 kt RCW
Visibility9999 m
Phenomena:N/A
Clouds:Broken 012 Hf
Broken 019 Hf
Overcast 029 Hf
Expected CloudBase > 800 ft AGL from Temp-Dew spread
Ceiling1,200 ft
Temp10°C
Dew Point08°C (88% RH)
AAT8.5°C
QNH1009 hPa
Raw Report
METAR KBRY 252135Z AUTO 23003KT 10SM BKN012 BKN019 OVC029 10/08 A2979
RMK AO1=

Extra information for KBRY:More info

Social comments